Hazard Outlook ... Ridge of high pressure will allow for hot and humid conditions to persist through the weekend, with a cold front bringing relief from the heat early next week. Showers and thunderstorms will be possible each day.
Station Historical Data
 
Daily Summary for July 20, 2019 Units:  English    Metric   Both
« Previous Day
Next Day »
Daily Weekly Monthly Yearly Custom
  Current: High: Low: Average:
Temperature: 86.9 °F 86.9 °F 72.9 °F 76.6 °F
Dew Point: 75.5 °F 78 °F 71.9 °F 73.8 °F
Humidity: 69% 98% 68% 92%
Wind Speed: 4.6mph 4.6mph 0mph 0.9mph
Wind Gust: 1.1mph 1.2mph - -
WindNorth - - North
Pressure: 30.00 in 30.05 in 29.97 in -
Precipitation: 0.143 in      
Historical Graphs
 
 
Tabular Data for July 20, 2019
Time Temperature Dew Point Pressure Wind Wind Speed Wind Gust Humidity Rainfall Rate (Hourly) solar Conditions
00:04 77.4 °F 73.6 °F 30.03 in North 1.1 mph   88% 0 in WeatherDisplay:10.37 W/m2 BKN
00:09 77.3 °F 73.8 °F 30.03 in North 1.1 mph   89% 0 in WeatherDisplay:10.37 W/m2 BKN
00:14 77.2 °F 73.4 °F 30.02 in Calm     88% 0 in WeatherDisplay:10.37 W/m2 BKN
00:19 77.1 °F 73.3 °F 30.02 in Calm     88% 0 in WeatherDisplay:10.37 W/m2 BKN
00:24 76.9 °F 73.4 °F 30.02 in North 1.1 mph   89% 0 in WeatherDisplay:10.37 W/m2 BKN
00:29 76.8 °F 73.3 °F 30.02 in North 1.1 mph 0.1 mph 89% 0 in WeatherDisplay:10.37 W/m2 BKN
00:34 76.7 °F 73.2 °F 30.03 in North 1.1 mph   89% 0 in WeatherDisplay:10.37 W/m2 BKN
00:39 76.6 °F 73.1 °F 30.03 in North 1.1 mph   89% 0 in WeatherDisplay:10.37 W/m2 BKN
00:44 76.5 °F 73 °F 30.03 in North 1.1 mph   89% 0 in WeatherDisplay:10.37 W/m2 BKN
00:49 76.4 °F 72.9 °F 30.02 in Calm     89% 0 in WeatherDisplay:10.37 W/m2 BKN
00:54 76.3 °F 72.8 °F 30.03 in Calm     89% 0 in WeatherDisplay:10.37 W/m2 BKN
00:59 76.2 °F 72.7 °F 30.03 in North 1.1 mph   89% 0 in WeatherDisplay:10.37 W/m2 BKN
01:04 76.1 °F 72.6 °F 30.04 in North 1.1 mph   89% 0 in WeatherDisplay:10.37 W/m2 FEW
01:09 76.1 °F 72.6 °F 30.04 in Calm     89% 0 in WeatherDisplay:10.37 W/m2 FEW
01:14 76.1 °F 72.6 °F 30.04 in Calm     89% 0 in WeatherDisplay:10.37 W/m2 FEW
01:19 76 °F 72.9 °F 30.05 in North 1.1 mph   90% 0 in WeatherDisplay:10.37 W/m2 FEW
01:24 76 °F 72.9 °F 30.05 in North 1.1 mph   90% 0 in WeatherDisplay:10.37 W/m2 BKN
01:29 75.9 °F 72.4 °F 30.05 in North 1.1 mph   89% 0 in WeatherDisplay:10.37 W/m2 BKN
01:34 75.9 °F 72.8 °F 30.03 in Calm     90% 0 in WeatherDisplay:10.37 W/m2 BKN
01:39 75.9 °F 72.8 °F 30.04 in Calm     90% 0 in WeatherDisplay:10.37 W/m2 BKN
01:44 75.8 °F 72.7 °F 30.04 in Calm     90% 0 in WeatherDisplay:10.37 W/m2 BKN
01:49 75.5 °F 72.7 °F 30.04 in Calm     91% 0 in WeatherDisplay:10.37 W/m2 BKN
01:54 75.1 °F 72.6 °F 30.03 in Calm     92% 0 in WeatherDisplay:10.37 W/m2 -RA
01:59 74.9 °F 72.7 °F 30.03 in Calm     93% 0 in WeatherDisplay:10.37 W/m2 -RA
02:04 74.8 °F 72.6 °F 30.02 in Calm     93% 0 in WeatherDisplay:10.37 W/m2 OVC
02:09 74.6 °F 72.8 °F 30.02 in Calm     94% 0 in WeatherDisplay:10.37 W/m2 OVC
02:14 74.4 °F 72.6 °F 30.01 in Calm     94% 0 in WeatherDisplay:10.37 W/m2 OVC
02:19 74 °F 72.2 °F 30.01 in Calm     94% 0.011 in WeatherDisplay:10.37 W/m2 RA
02:24 73.9 °F 72.4 °F 30.00 in Calm     95% 0.011 in WeatherDisplay:10.37 W/m2 OVC
02:29 73.7 °F 72.2 °F 29.99 in Calm     95% 0.022 in WeatherDisplay:10.37 W/m2 OVC
02:34 73.5 °F 72 °F 29.99 in Calm     95% 0.033 in WeatherDisplay:10.37 W/m2 RA
02:39 73.4 °F 71.9 °F 29.99 in Calm     95% 0.033 in WeatherDisplay:10.37 W/m2 OVC
02:44 73.4 °F 72.2 °F 29.98 in Calm     96% 0.055 in WeatherDisplay:10.37 W/m2 -RA
02:49 73.4 °F 72.2 °F 29.98 in Calm     96% 0.066 in WeatherDisplay:10.37 W/m2 -RA
02:54 73.3 °F 72.1 °F 29.99 in North 1.1 mph   96% 0.077 in WeatherDisplay:10.37 W/m2 BKN
02:59 73.4 °F 72.2 °F 29.98 in North 1.1 mph   96% 0.088 in WeatherDisplay:10.37 W/m2 RA
03:04 73.3 °F 72.1 °F 29.98 in Calm     96% 0.11 in WeatherDisplay:10.37 W/m2 -RA
03:09 73.3 °F 72.1 °F 29.98 in Calm     96% 0.121 in WeatherDisplay:10.37 W/m2 -RA
03:14 73.2 °F 72 °F 29.98 in Calm     96% 0.132 in WeatherDisplay:10.37 W/m2 -RA
03:19 73.2 °F 72.3 °F 29.98 in Calm     97% 0.121 in WeatherDisplay:10.37 W/m2 -RA
03:24 73.2 °F 72.3 °F 29.98 in Calm     97% 0.121 in WeatherDisplay:10.37 W/m2 -RA
03:29 73.3 °F 72.4 °F 29.97 in Calm     97% 0.11 in WeatherDisplay:10.37 W/m2 -RA
03:34 73.3 °F 72.4 °F 29.97 in Calm     97% 0.099 in WeatherDisplay:10.37 W/m2 -RA
03:39 73.3 °F 72.4 °F 29.98 in North 1.1 mph 0.9 mph 97% 0.099 in WeatherDisplay:10.37 W/m2 -RA
03:44 73.2 °F 72.3 °F 29.99 in North 1.1 mph   97% 0.088 in WeatherDisplay:10.37 W/m2 BKN
03:49 73.2 °F 72.3 °F 29.98 in North 1.1 mph   97% 0.077 in WeatherDisplay:10.37 W/m2 BKN
03:54 73.2 °F 72.3 °F 29.99 in North 1.1 mph 0.2 mph 97% 0.066 in WeatherDisplay:10.37 W/m2 BKN
03:59 73.2 °F 72.3 °F 29.99 in North 1.1 mph   97% 0.055 in WeatherDisplay:10.37 W/m2 BKN
04:04 73.2 °F 72.3 °F 29.99 in North 1.1 mph   97% 0.033 in WeatherDisplay:10.37 W/m2 BKN
04:09 73.2 °F 72.3 °F 29.98 in North 1.1 mph   97% 0.022 in WeatherDisplay:10.37 W/m2 BKN
04:14 73.1 °F 72.2 °F 29.98 in North 1.1 mph   97% 0.011 in WeatherDisplay:10.37 W/m2 BKN
04:19 73.1 °F 72.2 °F 29.98 in North 1.1 mph   97% 0.011 in WeatherDisplay:10.37 W/m2 BKN
04:24 73.1 °F 72.2 °F 29.97 in North 2.3 mph 1.2 mph 97% 0.011 in WeatherDisplay:10.37 W/m2 BKN
04:29 73.1 °F 72.2 °F 29.97 in North 2.3 mph   97% 0.011 in WeatherDisplay:10.37 W/m2 BKN
04:34 73.1 °F 72.2 °F 29.97 in North 1.1 mph   97% 0.011 in WeatherDisplay:10.37 W/m2 BKN
04:39 73.1 °F 72.2 °F 29.97 in Calm     97% 0.011 in WeatherDisplay:10.37 W/m2 BKN
04:44 73.1 °F 72.2 °F 29.97 in Calm     97% 0 in WeatherDisplay:10.37 W/m2 BKN
04:49 73.1 °F 72.2 °F 29.97 in North 1.1 mph   97% 0 in WeatherDisplay:10.37 W/m2 BKN
04:54 73.1 °F 72.2 °F 29.97 in North 1.1 mph   97% 0 in WeatherDisplay:10.37 W/m2 BKN
04:59 73 °F 72.1 °F 29.98 in Calm     97% 0 in WeatherDisplay:10.37 W/m2 BKN
05:04 73 °F 72.1 °F 29.97 in North 1.1 mph   97% 0 in WeatherDisplay:10.37 W/m2 BKN
05:09 72.9 °F 72 °F 29.98 in North 1.1 mph   97% 0 in WeatherDisplay:10.37 W/m2 BKN
05:14 72.9 °F 72 °F 29.98 in Calm     97% 0 in WeatherDisplay:10.37 W/m2 SCT
05:19 72.9 °F 72 °F 29.99 in Calm     97% 0 in WeatherDisplay:10.37 W/m2 SCT
05:24 72.9 °F 72 °F 29.99 in Calm     97% 0 in WeatherDisplay:10.37 W/m2 SCT
05:29 73.1 °F 72.5 °F 29.99 in Calm     98% 0 in WeatherDisplay:10.37 W/m2 SCT
05:34 73.1 °F 72.5 °F 30.00 in Calm     98% 0 in WeatherDisplay:10.37 W/m2 BKN
05:39 73.1 °F 72.5 °F 30.00 in Calm     98% 0 in WeatherDisplay:10.37 W/m2 BKN
05:44 73.1 °F 72.5 °F 29.99 in Calm     98% 0 in WeatherDisplay:10.37 W/m2 BKN
05:49 73.1 °F 72.5 °F 29.99 in Calm     98% 0 in WeatherDisplay:10.37 W/m2 BKN
05:54 73.2 °F 72.6 °F 30.00 in Calm     98% 0 in WeatherDisplay:10.37 W/m2 BKN
05:59 73.2 °F 72.6 °F 30.00 in Calm     98% 0 in WeatherDisplay:10.37 W/m2 BKN
06:04 73.2 °F 72.6 °F 30.00 in Calm     98% 0 in WeatherDisplay:10.37 W/m2 OVC
06:09 73.2 °F 72.6 °F 30.01 in Calm     98% 0 in WeatherDisplay:10.37 W/m2 OVC
06:14 73.2 °F 72.6 °F 30.01 in Calm     98% 0 in WeatherDisplay:10.37 W/m2 OVC
06:19 73.2 °F 72.6 °F 30.01 in Calm     98% 0 in WeatherDisplay:10.37 W/m2 OVC
06:24 73.2 °F 72.6 °F 30.01 in North 1.1 mph 0.1 mph 98% 0 in WeatherDisplay:10.37 W/m2 OVC
06:29 73.3 °F 72.7 °F 30.01 in North 1.1 mph   98% 0 in WeatherDisplay:10.37 W/m2 OVC
06:34 73.4 °F 72.8 °F 30.01 in North 1.1 mph   98% 0 in WeatherDisplay:10.37 W/m2 OVC
06:39 73.4 °F 72.8 °F 30.02 in Calm     98% 0 in WeatherDisplay:10.37 W/m2 OVC
06:44 73.4 °F 72.8 °F 30.02 in Calm     98% 0 in WeatherDisplay:10.37 W/m2 OVC
06:49 73.4 °F 72.8 °F 30.02 in Calm     98% 0 in WeatherDisplay:10.37 W/m2 OVC
06:54 73.4 °F 72.8 °F 30.02 in Calm     98% 0 in WeatherDisplay:10.37 W/m2 OVC
06:59 73.4 °F 72.8 °F 30.03 in Calm     98% 0 in WeatherDisplay:10.37 W/m2 OVC
07:04 73.4 °F 72.8 °F 30.03 in Calm     98% 0 in WeatherDisplay:10.37 W/m2 OVC
07:09 73.4 °F 72.8 °F 30.03 in Calm     98% 0 in WeatherDisplay:10.37 W/m2 OVC
07:14 73.5 °F 72.9 °F 30.03 in Calm     98% 0 in WeatherDisplay:10.37 W/m2 OVC
07:19 73.4 °F 72.8 °F 30.03 in Calm     98% 0 in WeatherDisplay:10.37 W/m2 OVC
07:24 73.3 °F 72.7 °F 30.03 in North 1.1 mph   98% 0 in WeatherDisplay:10.37 W/m2 OVC
07:29 73.3 °F 72.7 °F 30.03 in North 1.1 mph   98% 0 in WeatherDisplay:10.37 W/m2 OVC
07:34 73.3 °F 72.7 °F 30.04 in Calm     98% 0 in WeatherDisplay:10.37 W/m2 OVC
07:39 73.4 °F 72.8 °F 30.04 in Calm     98% 0 in WeatherDisplay:10.37 W/m2 OVC
07:44 73.3 °F 72.7 °F 30.04 in North 3.5 mph 0.4 mph 98% 0 in WeatherDisplay:10.37 W/m2 OVC
07:49 73.4 °F 72.8 °F 30.04 in North 3.5 mph   98% 0 in WeatherDisplay:10.37 W/m2 OVC
07:54 73.4 °F 72.8 °F 30.04 in North 3.5 mph   98% 0 in WeatherDisplay:10.37 W/m2 OVC
07:59 73.4 °F 72.8 °F 30.04 in Calm     98% 0 in WeatherDisplay:10.37 W/m2 OVC
08:04 73.4 °F 72.8 °F 30.04 in Calm     98% 0 in WeatherDisplay:10.37 W/m2 OVC
08:09 73.4 °F 72.8 °F 30.04 in Calm     98% 0 in WeatherDisplay:10.37 W/m2 OVC
08:14 73.3 °F 72.7 °F 30.04 in Calm     98% 0 in WeatherDisplay:10.37 W/m2 OVC
08:19 73.4 °F 72.8 °F 30.05 in Calm     98% 0 in WeatherDisplay:10.37 W/m2 OVC
08:24 73.4 °F 72.8 °F 30.04 in Calm     98% 0 in WeatherDisplay:10.37 W/m2 OVC
08:29 73.4 °F 72.8 °F 30.05 in Calm     98% 0 in WeatherDisplay:10.37 W/m2 OVC
08:34 73.5 °F 72.9 °F 30.05 in Calm     98% 0 in WeatherDisplay:10.37 W/m2 OVC
08:39 73.7 °F 73.1 °F 30.05 in Calm     98% 0 in WeatherDisplay:10.37 W/m2 OVC
08:44 73.7 °F 73.1 °F 30.05 in Calm     98% 0 in WeatherDisplay:10.37 W/m2 OVC
08:49 73.7 °F 73.1 °F 30.05 in Calm     98% 0 in WeatherDisplay:10.37 W/m2 OVC
08:54 73.8 °F 73.2 °F 30.05 in Calm     98% 0 in WeatherDisplay:10.37 W/m2 OVC
08:59 73.8 °F 73.2 °F 30.05 in Calm     98% 0 in WeatherDisplay:10.37 W/m2 OVC
09:04 73.8 °F 73.2 °F 30.05 in Calm     98% 0 in WeatherDisplay:10.37 W/m2 OVC
09:09 73.7 °F 73.1 °F 30.05 in Calm     98% 0 in WeatherDisplay:10.37 W/m2 OVC
09:14 73.7 °F 73.1 °F 30.05 in Calm     98% 0 in WeatherDisplay:10.37 W/m2 OVC
09:19 73.8 °F 73.2 °F 30.05 in Calm     98% 0 in WeatherDisplay:10.37 W/m2 OVC
09:24 73.8 °F 73.2 °F 30.05 in Calm     98% 0 in WeatherDisplay:10.37 W/m2 OVC
09:29 73.7 °F 73.1 °F 30.05 in Calm     98% 0 in WeatherDisplay:10.37 W/m2 OVC
09:34 73.8 °F 73.2 °F 30.05 in Calm     98% 0 in WeatherDisplay:10.37 W/m2 OVC
09:39 73.8 °F 73.2 °F 30.05 in Calm     98% 0 in WeatherDisplay:10.37 W/m2 OVC
09:44 74.1 °F 73.5 °F 30.05 in Calm     98% 0 in WeatherDisplay:10.37 W/m2 OVC
09:49 74.4 °F 73.8 °F 30.05 in Calm     98% 0 in WeatherDisplay:10.37 W/m2 OVC
09:54 74.6 °F 74 °F 30.05 in Calm     98% 0 in WeatherDisplay:10.37 W/m2 OVC
09:59 74.8 °F 74.2 °F 30.05 in Calm     98% 0 in WeatherDisplay:10.37 W/m2 OVC
10:04 75.1 °F 74.5 °F 30.05 in Calm     98% 0 in WeatherDisplay:10.37 W/m2 OVC
10:09 75.5 °F 74.9 °F 30.05 in Calm     98% 0 in WeatherDisplay:10.37 W/m2 OVC
10:14 76 °F 75.4 °F 30.04 in Calm     98% 0 in WeatherDisplay:10.37 W/m2 OVC
10:19 76.1 °F 75.2 °F 30.04 in North 1.1 mph   97% 0 in WeatherDisplay:10.37 W/m2 OVC
10:24 76.4 °F 75.2 °F 30.04 in North 1.1 mph   96% 0 in WeatherDisplay:10.37 W/m2 OVC
10:29 77 °F 75.5 °F 30.04 in North 1.1 mph   95% 0 in WeatherDisplay:10.37 W/m2 OVC
10:34 77.6 °F 75.7 °F 30.04 in North 1.1 mph   94% 0 in WeatherDisplay:10.37 W/m2 OVC
10:39 78.3 °F 76.1 °F 30.04 in North 1.1 mph   93% 0 in WeatherDisplay:10.37 W/m2 OVC
10:44 78.7 °F 76.2 °F 30.04 in North 1.1 mph   92% 0 in WeatherDisplay:10.37 W/m2 OVC
10:49 78.9 °F 76.7 °F 30.04 in North 1.1 mph   93% 0 in WeatherDisplay:10.37 W/m2 OVC
10:54 79.1 °F 76.9 °F 30.04 in North 1.1 mph 0.1 mph 93% 0 in WeatherDisplay:10.37 W/m2 OVC
10:59 79.5 °F 77 °F 30.03 in North 1.1 mph   92% 0 in WeatherDisplay:10.37 W/m2 OVC
11:04 80.2 °F 77 °F 30.03 in North 2.3 mph 1.1 mph 90% 0 in WeatherDisplay:10.37 W/m2 FEW
11:09 80.8 °F 77.3 °F 30.03 in North 2.3 mph 0.9 mph 89% 0 in WeatherDisplay:10.37 W/m2 FEW
11:14 80.9 °F 76.7 °F 30.03 in North 2.3 mph   87% 0 in WeatherDisplay:10.37 W/m2 FEW
11:19 80.7 °F 76.8 °F 30.03 in North 2.3 mph 0.7 mph 88% 0 in WeatherDisplay:10.37 W/m2 FEW
11:24 81 °F 76.8 °F 30.03 in North 2.3 mph   87% 0 in WeatherDisplay:10.37 W/m2 FEW
11:29 81.6 °F 76.6 °F 30.03 in North 2.3 mph 0.4 mph 85% 0 in WeatherDisplay:10.37 W/m2 FEW
11:34 81.9 °F 77.3 °F 30.03 in North 2.3 mph   86% 0 in WeatherDisplay:10.37 W/m2 FEW
11:39 82.3 °F 78 °F 30.03 in North 1.1 mph 0.4 mph 87% 0 in WeatherDisplay:10.37 W/m2 FEW
11:44 82.6 °F 77.3 °F 30.03 in North 1.1 mph   84% 0 in WeatherDisplay:10.37 W/m2 FEW
11:49 82.2 °F 76.2 °F 30.03 in North 1.1 mph   82% 0 in WeatherDisplay:10.37 W/m2 FEW
11:54 82 °F 76.7 °F 30.03 in North 1.1 mph   84% 0 in WeatherDisplay:10.37 W/m2 FEW
11:59 82.3 °F 76.6 °F 30.03 in North 3.5 mph   83% 0 in WeatherDisplay:10.37 W/m2 FEW
12:04 83.1 °F 77 °F 30.03 in North 3.5 mph 0.5 mph 82% 0 in WeatherDisplay:10.37 W/m2 FEW
12:09 83.6 °F 76.8 °F 30.03 in North 3.5 mph 0.5 mph 80% 0 in WeatherDisplay:10.37 W/m2 FEW
12:14 83.7 °F 76.9 °F 30.03 in North 2.3 mph   80% 0 in WeatherDisplay:10.37 W/m2 FEW
12:19 84.1 °F 77.6 °F 30.03 in North 3.5 mph 0.2 mph 81% 0 in WeatherDisplay:10.37 W/m2 FEW
12:24 84.6 °F 77.4 °F 30.03 in North 3.5 mph 0.2 mph 79% 0 in WeatherDisplay:10.37 W/m2 FEW
12:29 84.7 °F 77.1 °F 30.03 in North 3.5 mph 0.2 mph 78% 0 in WeatherDisplay:10.37 W/m2 FEW
12:34 84.3 °F 76.3 °F 30.03 in North 3.5 mph   77% 0 in WeatherDisplay:10.37 W/m2 FEW
12:39 83.7 °F 76.5 °F 30.03 in North 1.1 mph   79% 0 in WeatherDisplay:10.37 W/m2 FEW
12:44 83.7 °F 76.9 °F 30.03 in North 1.1 mph   80% 0 in WeatherDisplay:10.37 W/m2 FEW
12:49 83.8 °F 76.6 °F 30.03 in North 1.1 mph   79% 0 in WeatherDisplay:10.37 W/m2 FEW
12:54 83.8 °F 76.2 °F 30.03 in North 1.1 mph   78% 0 in WeatherDisplay:10.37 W/m2 FEW
12:59 83.7 °F 76.5 °F 30.03 in North 2.3 mph 0.5 mph 79% 0 in WeatherDisplay:10.37 W/m2 FEW
13:04 83.8 °F 77 °F 30.03 in North 2.3 mph   80% 0 in WeatherDisplay:10.37 W/m2 FEW
13:09 84.1 °F 76.9 °F 30.03 in North 2.3 mph   79% 0 in WeatherDisplay:10.37 W/m2 FEW
13:14 84.3 °F 77.1 °F 30.02 in Calm     79% 0 in WeatherDisplay:10.37 W/m2 FEW
13:19 84.8 °F 77.6 °F 30.02 in North 1.1 mph   79% 0 in WeatherDisplay:10.37 W/m2 FEW
13:24 84.9 °F 76.9 °F 30.02 in North 1.1 mph   77% 0 in WeatherDisplay:10.37 W/m2 FEW
13:29 85.2 °F 76.4 °F 30.02 in North 1.1 mph   75% 0 in WeatherDisplay:10.37 W/m2 FEW
13:34 84.9 °F 75.7 °F 30.01 in North 1.1 mph   74% 0 in WeatherDisplay:10.37 W/m2 FEW
13:39 84.9 °F 76.5 °F 30.01 in North 1.1 mph   76% 0 in WeatherDisplay:10.37 W/m2 FEW
13:44 85.3 °F 75.7 °F 30.01 in North 2.3 mph   73% 0 in WeatherDisplay:10.37 W/m2 FEW
13:49 86 °F 76.7 °F 30.01 in North 3.5 mph   74% 0 in WeatherDisplay:10.37 W/m2 FEW
13:54 86.4 °F 76.7 °F 30.01 in North 3.5 mph   73% 0 in WeatherDisplay:10.37 W/m2 FEW
13:59 86.5 °F 76.8 °F 30.01 in North 2.3 mph   73% 0 in WeatherDisplay:10.37 W/m2 FEW
14:04 86.6 °F 76.5 °F 30.00 in North 1.1 mph   72% 0 in WeatherDisplay:10.37 W/m2 FEW
14:09 86.5 °F 75.1 °F 30.00 in North 2.3 mph 0.1 mph 69% 0 in WeatherDisplay:10.37 W/m2 FEW
14:14 86.6 °F 76.1 °F 30.00 in North 2.3 mph 0.1 mph 71% 0 in WeatherDisplay:10.37 W/m2 FEW
14:19 86.9 °F 75.1 °F 30.00 in North 4.6 mph 0.7 mph 68% 0 in WeatherDisplay:10.37 W/m2 FEW
14:24 86.9 °F 75.5 °F 30.00 in North 4.6 mph 1.1 mph 69% 0 in WeatherDisplay:10.37 W/m2 FEW
Silver Leaf
Compliments of Weather Underground - 2 mb